createdAt,value
2022-11-08T00:00:42.785Z,1.90
2022-11-08T00:01:46.813Z,2.05
2022-11-08T00:02:49.434Z,2.53
2022-11-08T00:03:51.072Z,2.25
2022-11-08T00:04:53.595Z,2.97
2022-11-08T00:06:13.875Z,2.67
2022-11-08T00:07:34.025Z,2.85
2022-11-08T00:08:54.341Z,2.65
2022-11-08T00:10:14.735Z,2.97
2022-11-08T00:11:35.166Z,2.38
2022-11-08T00:12:55.384Z,2.40
2022-11-08T00:14:01.035Z,2.20
2022-11-08T00:15:03.596Z,2.75
2022-11-08T00:16:06.582Z,3.22
2022-11-08T00:17:09.813Z,2.70
2022-11-08T00:18:12.422Z,2.55
2022-11-08T00:19:14.018Z,2.40
2022-11-08T00:20:16.686Z,3.58
2022-11-08T00:21:18.220Z,2.45
2022-11-08T00:22:20.979Z,2.17
2022-11-08T00:23:22.654Z,2.65
2022-11-08T00:24:25.428Z,2.60
2022-11-08T00:25:26.957Z,3.63
2022-11-08T00:26:29.482Z,2.50
2022-11-08T00:27:31.120Z,2.03
2022-11-08T00:28:33.648Z,2.28
2022-11-08T00:29:35.699Z,2.83
2022-11-08T00:30:38.241Z,2.88
2022-11-08T00:31:39.826Z,2.92
2022-11-08T00:32:43.676Z,2.42
2022-11-08T00:33:45.208Z,2.40
2022-11-08T00:34:48.623Z,2.63
2022-11-08T00:35:50.192Z,2.35
2022-11-08T00:36:53.328Z,2.50
2022-11-08T00:37:55.864Z,2.15
2022-11-08T00:38:57.430Z,2.72
2022-11-08T00:39:59.927Z,2.50
2022-11-08T00:41:01.462Z,2.42
2022-11-08T00:42:04.146Z,2.30
2022-11-08T00:43:05.700Z,2.55
2022-11-08T00:44:08.418Z,2.95
2022-11-08T00:45:11.101Z,2.63
2022-11-08T00:46:12.631Z,2.30
2022-11-08T00:47:15.127Z,2.70
2022-11-08T00:48:18.336Z,2.47
2022-11-08T00:49:21.137Z,2.63
2022-11-08T00:50:23.550Z,2.95
2022-11-08T00:51:26.148Z,3.47
2022-11-08T00:52:28.699Z,2.67
2022-11-08T00:53:30.446Z,2.80
2022-11-08T00:54:32.974Z,4.00
2022-11-08T00:55:34.533Z,2.85
2022-11-08T00:56:37.043Z,3.13
2022-11-08T00:57:53.923Z,2.60
2022-11-08T00:59:00.971Z,2.35
2022-11-08T01:00:02.533Z,2.55
2022-11-08T01:01:10.416Z,2.38
2022-11-08T01:02:12.069Z,2.97
2022-11-08T01:03:20.365Z,2.90
2022-11-08T01:04:23.318Z,2.72
2022-11-08T01:05:25.878Z,2.63
2022-11-08T01:06:27.452Z,3.10
2022-11-08T01:07:30.073Z,2.40
2022-11-08T01:08:31.765Z,2.25
2022-11-08T01:09:34.313Z,2.72
2022-11-08T01:10:35.897Z,2.67
2022-11-08T01:11:39.088Z,4.05
2022-11-08T01:12:40.673Z,2.70
2022-11-08T01:13:43.639Z,2.22
2022-11-08T01:14:46.328Z,2.65
2022-11-08T01:15:48.228Z,2.72
2022-11-08T01:16:52.212Z,2.33
2022-11-08T01:17:53.899Z,2.40
2022-11-08T01:18:57.657Z,2.70
2022-11-08T01:20:00.666Z,2.50
2022-11-08T01:21:04.476Z,2.30
2022-11-08T01:22:07.033Z,2.53
2022-11-08T01:23:09.145Z,2.40
2022-11-08T01:24:11.773Z,2.65
2022-11-08T01:25:13.377Z,3.00
2022-11-08T01:26:17.817Z,2.42
2022-11-08T01:27:19.443Z,2.58
2022-11-08T01:28:22.145Z,2.60
2022-11-08T01:29:25.022Z,2.55
2022-11-08T01:30:26.720Z,2.75
2022-11-08T01:31:31.518Z,2.85
2022-11-08T01:32:33.880Z,2.80
2022-11-08T01:33:36.933Z,2.67
2022-11-08T01:34:39.555Z,2.42
2022-11-08T01:35:44.340Z,5.13
2022-11-08T01:36:46.939Z,2.80
2022-11-08T01:37:48.570Z,2.22
2022-11-08T01:38:51.254Z,3.10
2022-11-08T01:39:52.987Z,2.30
2022-11-08T01:40:55.533Z,2.45
2022-11-08T01:41:57.113Z,2.30
2022-11-08T01:42:59.795Z,2.17
2022-11-08T01:44:01.360Z,2.65
2022-11-08T01:45:07.016Z,2.38
2022-11-08T01:46:37.913Z,2.50
2022-11-08T01:47:40.544Z,2.50
2022-11-08T01:48:45.424Z,2.70
2022-11-08T01:49:48.055Z,2.60
2022-11-08T01:50:51.952Z,2.33
2022-11-08T01:51:58.676Z,2.97
2022-11-08T01:53:01.282Z,2.42
2022-11-08T01:54:04.470Z,2.90
2022-11-08T01:55:11.153Z,2.72
2022-11-08T01:56:14.581Z,2.60
2022-11-08T01:57:20.747Z,2.60
2022-11-08T01:58:24.472Z,2.22
2022-11-08T01:59:27.436Z,2.90
2022-11-08T02:00:30.245Z,2.70
2022-11-08T02:01:32.154Z,2.70
2022-11-08T02:02:36.939Z,2.58
2022-11-08T02:03:39.301Z,2.28
2022-11-08T02:04:43.452Z,2.40
2022-11-08T02:05:45.686Z,2.22
2022-11-08T02:06:49.755Z,2.53
2022-11-08T02:07:54.957Z,2.75
2022-11-08T02:08:58.563Z,2.42
2022-11-08T02:10:00.830Z,2.45
2022-11-08T02:11:04.153Z,2.50
2022-11-08T02:12:06.888Z,2.45
2022-11-08T02:13:14.658Z,2.42
2022-11-08T02:14:17.549Z,2.38
2022-11-08T02:15:21.995Z,2.58
2022-11-08T02:16:23.551Z,2.17
2022-11-08T02:17:26.092Z,2.58
2022-11-08T02:18:29.676Z,2.53
2022-11-08T02:19:39.184Z,2.40
2022-11-08T02:20:45.634Z,2.33
2022-11-08T02:21:53.626Z,2.33
2022-11-08T02:23:00.263Z,2.20
2022-11-08T02:24:07.247Z,2.40
2022-11-08T02:25:09.982Z,2.72
2022-11-08T02:26:12.217Z,2.50
2022-11-08T02:27:15.195Z,2.13
2022-11-08T02:28:17.053Z,1.80
2022-11-08T02:29:24.604Z,2.40
2022-11-08T02:30:33.434Z,2.15
2022-11-08T02:31:35.084Z,2.35
2022-11-08T02:32:39.134Z,2.20
2022-11-08T02:33:41.286Z,1.77
2022-11-08T02:34:46.050Z,2.53
2022-11-08T02:35:50.479Z,2.50
2022-11-08T02:36:52.038Z,2.05
2022-11-08T02:37:54.619Z,2.05
2022-11-08T02:38:57.502Z,2.17
2022-11-08T02:40:01.390Z,2.10
2022-11-08T02:41:03.005Z,1.95
2022-11-08T02:42:05.772Z,1.88
2022-11-08T02:43:07.351Z,2.20
2022-11-08T02:44:09.971Z,2.40
2022-11-08T02:45:11.611Z,2.45
2022-11-08T02:46:14.208Z,2.50
2022-11-08T02:47:16.451Z,2.10
2022-11-08T02:48:20.060Z,1.77
2022-11-08T02:49:22.049Z,2.03
2022-11-08T02:50:24.847Z,2.25
2022-11-08T02:51:26.753Z,2.33
2022-11-08T02:52:29.281Z,1.65
2022-11-08T02:53:30.855Z,2.50
2022-11-08T02:54:33.713Z,2.20
2022-11-08T02:55:36.712Z,2.13
2022-11-08T02:56:39.257Z,1.80
2022-11-08T02:57:40.963Z,1.95
2022-11-08T02:58:43.508Z,1.98
2022-11-08T02:59:45.079Z,2.08
2022-11-08T03:00:47.636Z,2.38
2022-11-08T03:01:49.337Z,1.85
2022-11-08T03:02:53.592Z,2.20
2022-11-08T03:03:55.203Z,1.95
2022-11-08T03:04:57.731Z,1.88
2022-11-08T03:05:59.350Z,1.90
2022-11-08T03:07:01.966Z,2.13
2022-11-08T03:08:04.113Z,2.35
2022-11-08T03:09:06.694Z,2.13
2022-11-08T03:10:08.845Z,2.40
2022-11-08T03:11:12.730Z,1.90
2022-11-08T03:12:14.287Z,2.25
2022-11-08T03:13:16.855Z,2.10
2022-11-08T03:14:18.755Z,1.70
2022-11-08T03:15:21.529Z,2.35
2022-11-08T03:16:23.229Z,2.40
2022-11-08T03:17:26.022Z,2.00
2022-11-08T03:18:27.628Z,2.70
2022-11-08T03:19:30.157Z,1.95
2022-11-08T03:20:33.303Z,3.70
2022-11-08T03:21:36.453Z,2.08
2022-11-08T03:22:38.002Z,2.05
2022-11-08T03:23:40.669Z,2.03
2022-11-08T03:24:42.214Z,2.00
2022-11-08T03:25:44.846Z,2.20
2022-11-08T03:26:48.691Z,1.90
2022-11-08T03:27:50.250Z,2.25
2022-11-08T03:28:52.784Z,2.03
2022-11-08T03:29:54.393Z,2.55
2022-11-08T03:30:57.031Z,2.20
2022-11-08T03:31:59.619Z,2.30
2022-11-08T03:33:01.623Z,2.22
2022-11-08T03:34:04.273Z,2.92
2022-11-08T03:35:06.927Z,1.98
2022-11-08T03:36:10.293Z,1.77
2022-11-08T03:37:11.912Z,1.98
2022-11-08T03:38:14.543Z,2.05
2022-11-08T03:39:17.128Z,1.63
2022-11-08T03:40:18.999Z,2.08
2022-11-08T03:41:21.711Z,1.80
2022-11-08T03:42:24.698Z,2.17
2022-11-08T03:43:27.532Z,1.90
2022-11-08T03:44:29.087Z,1.90
2022-11-08T03:45:31.632Z,2.22
2022-11-08T03:46:33.265Z,2.10
2022-11-08T03:47:38.320Z,2.15
2022-11-08T03:48:39.882Z,2.15
2022-11-08T03:49:42.374Z,2.55
2022-11-08T03:50:43.939Z,1.95
2022-11-08T03:51:46.488Z,2.30
2022-11-08T03:52:49.281Z,2.13
2022-11-08T03:53:51.843Z,2.33
2022-11-08T03:54:53.493Z,2.20
2022-11-08T03:55:56.129Z,2.17
2022-11-08T03:56:57.806Z,2.20
2022-11-08T03:58:22.924Z,2.03
2022-11-08T03:59:33.656Z,2.10
2022-11-08T04:00:36.304Z,1.88
2022-11-08T04:01:38.223Z,2.33
2022-11-08T04:02:41.324Z,1.90
2022-11-08T04:03:43.989Z,1.60
2022-11-08T04:04:45.536Z,1.70
2022-11-08T04:05:48.097Z,2.00
2022-11-08T04:06:49.802Z,2.30
2022-11-08T04:07:52.458Z,1.83
2022-11-08T04:08:54.004Z,2.47
2022-11-08T04:09:57.013Z,3.17
2022-11-08T04:11:19.421Z,1.58
2022-11-08T04:12:39.475Z,2.00
2022-11-08T04:14:01.146Z,2.35
2022-11-08T04:15:15.790Z,1.75
2022-11-08T04:16:18.488Z,2.00
2022-11-08T04:17:40.114Z,1.73
2022-11-08T04:19:00.361Z,1.52
2022-11-08T04:20:20.828Z,2.13
2022-11-08T04:21:23.367Z,1.83
2022-11-08T04:22:24.901Z,1.95
2022-11-08T04:23:28.419Z,2.13
2022-11-08T04:24:30.987Z,1.90
2022-11-08T04:25:35.134Z,1.48
2022-11-08T04:26:37.966Z,1.80
2022-11-08T04:27:39.489Z,1.42
2022-11-08T04:28:43.590Z,1.98
2022-11-08T04:29:45.125Z,1.55
2022-11-08T04:30:47.685Z,1.85
2022-11-08T04:31:50.246Z,1.73
2022-11-08T04:32:51.776Z,2.05
2022-11-08T04:33:54.289Z,1.85
2022-11-08T04:34:55.893Z,1.73
2022-11-08T04:36:02.956Z,2.10
2022-11-08T04:37:05.495Z,1.80
2022-11-08T04:38:07.057Z,1.60
2022-11-08T04:39:09.613Z,1.73
2022-11-08T04:40:12.024Z,1.85
2022-11-08T04:41:16.199Z,1.73
2022-11-08T04:42:17.771Z,1.65
2022-11-08T04:43:20.383Z,1.92
2022-11-08T04:44:23.259Z,2.08
2022-11-08T04:45:25.860Z,2.00
2022-11-08T04:46:29.539Z,1.23
2022-11-08T04:47:36.023Z,1.70
2022-11-08T04:48:41.694Z,2.15
2022-11-08T04:49:43.219Z,1.80
2022-11-08T04:50:52.202Z,2.03
2022-11-08T04:51:53.784Z,2.25
2022-11-08T04:52:56.511Z,1.75
2022-11-08T04:53:59.130Z,1.75
2022-11-08T04:55:01.615Z,1.63
2022-11-08T04:56:04.807Z,1.80
2022-11-08T04:57:07.329Z,1.60
2022-11-08T04:58:08.916Z,1.90
2022-11-08T04:59:12.310Z,2.30
2022-11-08T05:00:16.572Z,2.10
2022-11-08T05:01:20.695Z,1.63
2022-11-08T05:02:22.487Z,1.58
2022-11-08T05:03:25.111Z,1.80
2022-11-08T05:04:26.670Z,1.70
2022-11-08T05:05:29.238Z,1.50
2022-11-08T05:06:32.826Z,1.58
2022-11-08T05:07:34.445Z,2.42
2022-11-08T05:08:36.962Z,1.60
2022-11-08T05:09:38.508Z,1.35
2022-11-08T05:10:41.085Z,1.70
2022-11-08T05:11:42.647Z,1.70
2022-11-08T05:12:45.341Z,2.20
2022-11-08T05:13:47.499Z,2.10
2022-11-08T05:14:50.117Z,2.05
2022-11-08T05:15:53.104Z,1.90
2022-11-08T05:16:55.776Z,1.67
2022-11-08T05:17:57.382Z,1.90
2022-11-08T05:19:00.132Z,1.75
2022-11-08T05:20:20.105Z,1.70
2022-11-08T05:21:41.105Z,1.75
2022-11-08T05:23:00.334Z,2.10
2022-11-08T05:24:03.696Z,1.80
2022-11-08T05:25:06.203Z,2.17
2022-11-08T05:26:09.222Z,2.28
2022-11-08T05:27:10.967Z,1.90
2022-11-08T05:28:13.676Z,2.60
2022-11-08T05:29:17.641Z,2.53
2022-11-08T05:30:19.264Z,2.28
2022-11-08T05:31:23.134Z,1.80
2022-11-08T05:32:24.771Z,2.10
2022-11-08T05:33:27.355Z,3.13
2022-11-08T05:34:29.614Z,2.05
2022-11-08T05:35:34.121Z,2.20
2022-11-08T05:36:35.654Z,2.30
2022-11-08T05:37:41.677Z,1.80
2022-11-08T05:38:44.508Z,2.10
2022-11-08T05:39:46.067Z,2.55
2022-11-08T05:40:48.736Z,2.17
2022-11-08T05:41:50.317Z,2.35
2022-11-08T05:42:54.398Z,1.95
2022-11-08T05:43:56.216Z,1.80
2022-11-08T05:44:58.718Z,2.38
2022-11-08T05:46:00.369Z,2.10
2022-11-08T05:47:04.523Z,2.03
2022-11-08T05:48:06.879Z,2.15
2022-11-08T05:49:09.820Z,2.17
2022-11-08T05:50:15.479Z,1.90
2022-11-08T05:51:21.860Z,2.45
2022-11-08T05:52:23.697Z,2.47
2022-11-08T05:53:26.503Z,2.15
2022-11-08T05:54:28.260Z,1.85
2022-11-08T05:55:31.197Z,2.58
2022-11-08T05:56:32.932Z,2.42
2022-11-08T05:57:36.001Z,2.50
2022-11-08T05:58:38.856Z,2.20
2022-11-08T05:59:40.689Z,2.10
2022-11-08T06:00:43.524Z,2.40
2022-11-08T06:01:45.181Z,2.20
2022-11-08T06:02:49.185Z,2.45
2022-11-08T06:03:51.024Z,2.80
2022-11-08T06:04:53.896Z,2.38
2022-11-08T06:05:55.731Z,2.30
2022-11-08T06:06:58.247Z,2.30
2022-11-08T06:07:59.855Z,2.38
2022-11-08T06:09:02.394Z,2.38
2022-11-08T06:10:05.407Z,2.13
2022-11-08T06:11:10.129Z,2.33
2022-11-08T06:12:11.767Z,2.20
2022-11-08T06:13:14.283Z,2.42
2022-11-08T06:14:15.825Z,2.30
2022-11-08T06:15:18.359Z,2.45
2022-11-08T06:16:22.010Z,2.65
2022-11-08T06:17:27.668Z,2.05
2022-11-08T06:18:33.591Z,1.92
2022-11-08T06:19:35.147Z,2.50
2022-11-08T06:20:37.697Z,2.40
2022-11-08T06:21:39.218Z,3.03
2022-11-08T06:22:43.341Z,2.88
2022-11-08T06:23:45.354Z,2.60
2022-11-08T06:24:47.830Z,2.45
2022-11-08T06:25:49.385Z,2.45
2022-11-08T06:26:51.922Z,2.88
2022-11-08T06:27:54.435Z,2.42
2022-11-08T06:28:55.984Z,2.38
2022-11-08T06:29:58.531Z,2.30
2022-11-08T06:31:00.467Z,2.72
2022-11-08T06:32:03.033Z,2.13
2022-11-08T06:33:05.672Z,2.53
2022-11-08T06:34:09.119Z,2.38
2022-11-08T06:35:11.878Z,2.50
2022-11-08T06:36:13.525Z,2.25
2022-11-08T06:37:16.600Z,2.63
2022-11-08T06:38:18.174Z,2.30
2022-11-08T06:39:20.751Z,2.15
2022-11-08T06:40:22.435Z,2.30
2022-11-08T06:41:27.299Z,2.22
2022-11-08T06:42:28.860Z,2.30
2022-11-08T06:43:31.485Z,2.28
2022-11-08T06:44:34.093Z,2.80
2022-11-08T06:45:37.167Z,2.30
2022-11-08T06:46:39.718Z,1.95
2022-11-08T06:47:41.288Z,2.30
2022-11-08T06:48:44.042Z,2.00
2022-11-08T06:49:47.964Z,2.60
2022-11-08T06:50:54.472Z,3.03
2022-11-08T06:51:57.119Z,2.03
2022-11-08T06:52:59.361Z,2.13
2022-11-08T06:54:05.068Z,2.20
2022-11-08T06:55:09.697Z,2.15
2022-11-08T06:56:11.804Z,3.00
2022-11-08T06:57:14.284Z,2.20
2022-11-08T06:58:15.851Z,2.95
2022-11-08T06:59:18.363Z,2.15
2022-11-08T07:00:20.392Z,2.50
2022-11-08T07:01:22.981Z,2.13
2022-11-08T07:02:25.653Z,2.08
2022-11-08T07:03:27.289Z,1.90
2022-11-08T07:04:29.912Z,2.40
2022-11-08T07:05:33.354Z,1.67
2022-11-08T07:06:35.869Z,2.00
2022-11-08T07:07:37.818Z,2.17
2022-11-08T07:08:40.383Z,2.13
2022-11-08T07:09:43.986Z,2.15
2022-11-08T07:10:46.485Z,2.67
2022-11-08T07:11:48.975Z,2.17
2022-11-08T07:12:58.321Z,2.42
2022-11-08T07:14:00.861Z,2.78
2022-11-08T07:15:03.375Z,1.98
2022-11-08T07:16:06.592Z,2.05
2022-11-08T07:17:08.133Z,2.05
2022-11-08T07:18:12.528Z,2.55
2022-11-08T07:19:15.227Z,2.17
2022-11-08T07:20:17.046Z,1.85
2022-11-08T07:21:20.975Z,2.10
2022-11-08T07:22:22.853Z,2.38
2022-11-08T07:23:25.347Z,2.15
2022-11-08T07:24:26.874Z,1.98
2022-11-08T07:25:30.288Z,1.67
2022-11-08T07:26:32.879Z,1.80
2022-11-08T07:27:35.553Z,1.92
2022-11-08T07:28:37.204Z,2.38
2022-11-08T07:29:39.695Z,2.10
2022-11-08T07:30:41.554Z,1.90
2022-11-08T07:31:44.142Z,1.73
2022-11-08T07:32:45.686Z,2.13
2022-11-08T07:33:48.282Z,1.80
2022-11-08T07:34:49.862Z,1.88
2022-11-08T07:35:52.389Z,1.98
2022-11-08T07:36:56.461Z,1.70
2022-11-08T07:37:58.251Z,1.85
2022-11-08T07:39:05.434Z,1.95
2022-11-08T07:40:09.883Z,1.83
2022-11-08T07:41:12.595Z,1.90
2022-11-08T07:42:14.140Z,2.00
2022-11-08T07:43:16.702Z,1.70
2022-11-08T07:44:19.295Z,1.45
2022-11-08T07:45:20.919Z,2.42
2022-11-08T07:46:23.477Z,1.80
2022-11-08T07:47:24.999Z,2.10
2022-11-08T07:48:28.411Z,1.70
2022-11-08T07:49:31.114Z,1.60
2022-11-08T07:50:32.699Z,2.17
2022-11-08T07:51:35.338Z,2.40
2022-11-08T07:52:38.228Z,1.77
2022-11-08T07:53:40.793Z,2.05
2022-11-08T07:54:42.439Z,1.92
2022-11-08T07:55:46.998Z,2.10
2022-11-08T07:56:49.567Z,2.53
2022-11-08T07:57:52.423Z,2.13
2022-11-08T07:58:54.966Z,2.17
2022-11-08T07:59:56.490Z,2.05
2022-11-08T08:01:01.648Z,2.00
2022-11-08T08:02:03.841Z,2.10
2022-11-08T08:03:08.470Z,1.63
2022-11-08T08:04:12.250Z,1.52
2022-11-08T08:05:13.919Z,1.90
2022-11-08T08:06:17.542Z,1.90
2022-11-08T08:07:19.187Z,1.67
2022-11-08T08:08:23.363Z,1.65
2022-11-08T08:09:25.982Z,1.90
2022-11-08T08:10:28.445Z,1.52
2022-11-08T08:11:33.804Z,1.60
2022-11-08T08:12:35.592Z,1.80
2022-11-08T08:13:38.136Z,1.50
2022-11-08T08:14:39.667Z,1.75
2022-11-08T08:15:42.410Z,1.50
2022-11-08T08:16:44.908Z,1.85
2022-11-08T08:17:46.452Z,1.65
2022-11-08T08:18:55.035Z,1.60
2022-11-08T08:19:58.722Z,1.50
2022-11-08T08:21:01.248Z,2.05
2022-11-08T08:22:02.886Z,1.20
2022-11-08T08:23:06.402Z,1.52
2022-11-08T08:24:10.891Z,1.60
2022-11-08T08:25:13.812Z,1.40
2022-11-08T08:26:16.354Z,1.60
2022-11-08T08:27:17.870Z,1.45
2022-11-08T08:28:20.519Z,1.60
2022-11-08T08:29:23.055Z,1.60
2022-11-08T08:30:24.704Z,1.50
2022-11-08T08:31:27.257Z,1.83
2022-11-08T08:32:31.499Z,1.85
2022-11-08T08:33:34.840Z,1.38
2022-11-08T08:34:37.849Z,1.20
2022-11-08T08:35:42.955Z,1.83
2022-11-08T08:36:45.602Z,1.60
2022-11-08T08:37:47.119Z,1.65
2022-11-08T08:38:49.626Z,1.30
2022-11-08T08:39:52.460Z,1.73
2022-11-08T08:40:54.940Z,1.13
2022-11-08T08:41:57.481Z,1.40
2022-11-08T08:42:59.229Z,1.20
2022-11-08T08:44:01.722Z,1.55
2022-11-08T08:45:04.617Z,1.52
2022-11-08T08:46:07.883Z,1.50
2022-11-08T08:47:10.706Z,1.60
2022-11-08T08:48:13.231Z,1.58
2022-11-08T08:49:15.786Z,1.50
2022-11-08T08:50:18.542Z,1.58
2022-11-08T08:51:21.272Z,1.52
2022-11-08T08:52:22.799Z,1.30
2022-11-08T08:53:25.440Z,1.33
2022-11-08T08:54:29.547Z,1.30
2022-11-08T08:55:35.165Z,1.30
2022-11-08T08:56:36.714Z,1.30
2022-11-08T08:57:39.305Z,1.23
2022-11-08T08:58:42.332Z,1.40
2022-11-08T09:02:31.886Z,1.48
2022-11-08T09:03:33.967Z,1.17
2022-11-08T09:04:36.893Z,1.30
2022-11-08T09:05:41.689Z,1.45
2022-11-08T09:06:44.259Z,1.30
2022-11-08T09:07:46.859Z,1.30
2022-11-08T09:08:48.433Z,1.45
2022-11-08T09:09:50.981Z,1.20
2022-11-08T09:10:54.707Z,1.02
2022-11-08T09:11:57.260Z,1.20
2022-11-08T09:13:00.098Z,1.10
2022-11-08T09:14:02.753Z,1.63
2022-11-08T09:15:05.966Z,1.30
2022-11-08T09:16:10.233Z,1.33
2022-11-08T09:17:11.977Z,1.30
2022-11-08T09:18:14.701Z,1.25
2022-11-08T09:19:17.299Z,1.20
2022-11-08T09:20:18.948Z,1.33
2022-11-08T09:21:21.536Z,1.23
2022-11-08T09:22:24.105Z,1.23
2022-11-08T09:23:25.818Z,1.30
2022-11-08T09:24:28.292Z,1.35
2022-11-08T09:25:30.905Z,1.23
2022-11-08T09:26:34.826Z,1.10
2022-11-08T09:27:36.366Z,1.40
2022-11-08T09:28:38.969Z,1.10
2022-11-08T09:29:40.585Z,1.40
2022-11-08T09:30:43.112Z,1.00
2022-11-08T09:31:45.628Z,1.30
2022-11-08T09:33:00.436Z,1.02
2022-11-08T09:35:11.711Z,1.45
2022-11-08T09:36:14.946Z,0.93
2022-11-08T09:37:17.487Z,1.58
2022-11-08T09:38:19.322Z,1.30
2022-11-08T09:39:22.144Z,1.25
2022-11-08T09:40:28.717Z,0.90
2022-11-08T09:41:51.414Z,0.93
2022-11-08T09:43:03.642Z,0.90
2022-11-08T09:44:15.020Z,1.00
2022-11-08T09:45:23.388Z,1.30
2022-11-08T09:46:30.539Z,1.13
2022-11-08T09:47:36.044Z,1.00
2022-11-08T09:48:41.567Z,1.00
2022-11-08T09:49:46.015Z,1.00
2022-11-08T09:50:51.992Z,1.27
2022-11-08T09:51:54.867Z,1.35
2022-11-08T09:53:04.542Z,1.05
2022-11-08T09:54:18.469Z,1.10
2022-11-08T09:55:27.921Z,0.90
2022-11-08T09:56:32.243Z,1.15
2022-11-08T09:57:48.583Z,0.90
2022-11-08T09:58:56.327Z,1.00
2022-11-08T10:00:03.690Z,1.02
2022-11-08T10:01:06.390Z,0.98
2022-11-08T10:02:15.957Z,1.00
2022-11-08T10:03:20.017Z,0.90
2022-11-08T10:04:25.066Z,0.98
2022-11-08T10:05:28.015Z,1.10
2022-11-08T10:06:42.522Z,0.90
2022-11-08T10:07:50.892Z,0.90
2022-11-08T10:08:59.533Z,0.90
2022-11-08T10:10:35.881Z,0.88
2022-11-08T10:11:47.554Z,1.20
2022-11-08T10:12:59.305Z,0.80
2022-11-08T10:14:11.781Z,0.82
2022-11-08T10:15:22.404Z,1.20
2022-11-08T10:16:29.977Z,0.90
2022-11-08T10:17:47.255Z,0.80
2022-11-08T10:19:15.800Z,1.30
2022-11-08T10:20:23.496Z,0.75
2022-11-08T10:21:53.840Z,1.00
2022-11-08T10:23:02.175Z,1.17
2022-11-08T10:24:10.908Z,0.90
2022-11-08T10:25:20.857Z,0.90
2022-11-08T10:26:27.408Z,0.80
2022-11-08T10:27:33.897Z,0.90
2022-11-08T10:28:41.909Z,0.80
2022-11-08T10:29:46.276Z,1.15
2022-11-08T10:30:50.245Z,1.10
2022-11-08T10:31:56.972Z,1.00
2022-11-08T10:32:59.548Z,0.82
2022-11-08T10:34:03.367Z,1.10
2022-11-08T10:35:14.118Z,1.20
2022-11-08T10:36:22.318Z,1.00
2022-11-08T10:37:25.348Z,1.02
2022-11-08T10:38:33.559Z,0.98
2022-11-08T10:39:40.752Z,1.10
2022-11-08T10:40:48.048Z,1.45
2022-11-08T10:41:55.416Z,0.93
2022-11-08T10:43:08.143Z,0.88
2022-11-08T10:44:16.471Z,0.95
2022-11-08T10:45:18.172Z,1.00
2022-11-08T10:46:35.838Z,1.10
2022-11-08T10:47:39.296Z,1.00
2022-11-08T10:48:41.943Z,0.90
2022-11-08T10:49:45.588Z,1.00
2022-11-08T10:50:51.626Z,0.98
2022-11-08T10:51:56.340Z,1.10
2022-11-08T10:53:01.347Z,0.80
2022-11-08T10:55:25.171Z,0.90
2022-11-08T10:56:26.705Z,1.00
2022-11-08T10:57:38.294Z,1.30
2022-11-08T10:58:41.956Z,1.00
2022-11-08T10:59:46.143Z,1.00
2022-11-08T11:01:00.100Z,1.08
2022-11-08T11:02:03.330Z,1.30
2022-11-08T11:03:28.932Z,0.80
2022-11-08T11:04:33.023Z,1.10
2022-11-08T11:05:38.618Z,1.08
2022-11-08T11:06:41.223Z,1.17
2022-11-08T11:07:45.825Z,2.72
2022-11-08T11:08:50.705Z,0.80
2022-11-08T11:09:52.380Z,0.85
2022-11-08T11:10:55.409Z,0.90
2022-11-08T11:11:58.057Z,0.90
2022-11-08T11:13:03.589Z,1.10
2022-11-08T11:14:11.799Z,1.20
2022-11-08T11:15:17.805Z,1.10
2022-11-08T11:16:20.335Z,1.13
2022-11-08T11:17:25.168Z,1.20
2022-11-08T11:18:30.666Z,1.05
2022-11-08T11:19:33.418Z,1.13
2022-11-08T11:20:36.330Z,1.05
2022-11-08T11:21:39.315Z,1.45
2022-11-08T11:22:46.746Z,1.10
2022-11-08T11:23:51.520Z,1.17
2022-11-08T11:24:53.153Z,1.00
2022-11-08T11:25:56.067Z,0.82
2022-11-08T11:27:04.703Z,1.30
2022-11-08T11:28:07.209Z,1.08
2022-11-08T11:29:20.533Z,1.00
2022-11-08T11:30:32.742Z,0.90
2022-11-08T11:31:36.288Z,1.40
2022-11-08T11:32:39.962Z,1.00
2022-11-08T11:33:45.996Z,1.35
2022-11-08T11:34:52.501Z,1.13
2022-11-08T11:35:57.580Z,1.00
2022-11-08T11:37:03.464Z,1.20
2022-11-08T11:38:12.061Z,1.10
2022-11-08T11:39:19.861Z,1.35
2022-11-08T11:40:28.328Z,1.10
2022-11-08T11:41:34.912Z,1.13
2022-11-08T11:42:46.602Z,1.85
2022-11-08T11:43:58.834Z,0.90
2022-11-08T11:45:08.747Z,1.13
2022-11-08T11:46:18.603Z,1.10
2022-11-08T11:47:26.891Z,1.33
2022-11-08T11:48:31.408Z,1.00
2022-11-08T11:49:35.597Z,1.98
2022-11-08T11:50:47.562Z,1.10
2022-11-08T11:51:53.155Z,1.00
2022-11-08T11:52:55.945Z,1.10
2022-11-08T11:53:58.665Z,1.00
2022-11-08T11:55:00.410Z,1.25
2022-11-08T11:56:29.365Z,1.10
2022-11-08T11:57:36.585Z,0.73
2022-11-08T11:59:20.853Z,1.13
2022-11-08T12:00:23.630Z,1.10
2022-11-08T12:01:37.407Z,1.10
2022-11-08T12:03:06.381Z,1.15
2022-11-08T12:04:26.880Z,1.20
2022-11-08T12:05:35.163Z,1.20
2022-11-08T12:06:44.414Z,1.13
2022-11-08T12:07:49.542Z,1.10
2022-11-08T12:09:26.277Z,1.42
2022-11-08T12:10:36.531Z,1.00
2022-11-08T12:11:47.278Z,1.50
2022-11-08T12:12:59.407Z,1.70
2022-11-08T12:14:11.272Z,1.67
2022-11-08T12:15:23.052Z,1.58
2022-11-08T12:16:27.680Z,1.63
2022-11-08T12:17:58.410Z,2.00
2022-11-08T12:19:13.503Z,1.40
2022-11-08T12:20:31.015Z,1.00
2022-11-08T12:21:37.113Z,1.80
2022-11-08T12:22:47.983Z,1.27
2022-11-08T12:24:08.973Z,1.30
2022-11-08T12:25:18.832Z,0.90
2022-11-08T12:26:26.313Z,1.08
2022-11-08T12:27:37.994Z,1.20
2022-11-08T12:28:50.883Z,1.23
2022-11-08T12:29:58.251Z,1.00
2022-11-08T12:31:08.901Z,1.00
2022-11-08T12:32:57.388Z,1.13
2022-11-08T12:34:19.961Z,1.08
2022-11-08T12:35:29.840Z,1.20
2022-11-08T12:36:37.310Z,1.20
2022-11-08T12:37:48.133Z,1.10
2022-11-08T12:38:59.466Z,1.33
2022-11-08T12:40:04.951Z,1.20
2022-11-08T12:41:13.635Z,1.40
2022-11-08T12:42:28.000Z,1.00
2022-11-08T12:43:43.455Z,1.10
2022-11-08T12:45:22.392Z,1.20
2022-11-08T12:46:25.704Z,1.17
2022-11-08T12:47:35.406Z,1.10
2022-11-08T12:49:00.926Z,1.23
2022-11-08T12:50:18.639Z,1.20
2022-11-08T12:51:26.856Z,1.25
2022-11-08T12:52:41.955Z,1.20
2022-11-08T12:53:50.578Z,1.25
2022-11-08T12:54:54.984Z,1.27
2022-11-08T12:55:58.560Z,1.30
2022-11-08T12:57:03.770Z,1.10
2022-11-08T12:58:24.609Z,1.27
2022-11-08T12:59:29.703Z,1.27
2022-11-08T13:00:32.469Z,0.95
2022-11-08T13:01:35.354Z,1.42
2022-11-08T13:02:38.512Z,1.10
2022-11-08T13:04:03.168Z,1.08
2022-11-08T13:05:10.526Z,1.40
2022-11-08T13:06:18.083Z,1.50
2022-11-08T13:07:28.118Z,1.17
2022-11-08T13:08:35.672Z,1.10
2022-11-08T13:09:44.963Z,1.13
2022-11-08T13:10:54.331Z,1.08
2022-11-08T13:12:05.362Z,1.23
2022-11-08T13:13:17.262Z,1.30
2022-11-08T13:14:19.565Z,1.23
2022-11-08T13:15:25.111Z,1.20
2022-11-08T13:16:28.830Z,1.23
2022-11-08T13:17:32.136Z,1.20
2022-11-08T13:18:34.374Z,1.52
2022-11-08T13:20:01.996Z,1.20
2022-11-08T13:21:34.128Z,1.33
2022-11-08T13:22:44.498Z,1.33
2022-11-08T13:23:47.201Z,1.38
2022-11-08T13:24:48.856Z,1.20
2022-11-08T13:25:52.588Z,1.10
2022-11-08T13:27:25.417Z,1.38
2022-11-08T13:28:44.607Z,1.10
2022-11-08T13:29:47.220Z,1.23
2022-11-08T13:30:56.592Z,1.10
2022-11-08T13:32:02.392Z,1.40
2022-11-08T13:33:12.921Z,1.27
2022-11-08T13:34:23.013Z,1.48
2022-11-08T13:35:33.508Z,1.33
2022-11-08T13:36:43.149Z,1.30
2022-11-08T13:37:56.637Z,1.38
2022-11-08T13:39:08.061Z,1.48
2022-11-08T13:40:23.848Z,1.67
2022-11-08T13:41:27.332Z,1.30
2022-11-08T13:42:40.825Z,0.93
2022-11-08T13:43:42.759Z,1.45
2022-11-08T13:45:00.714Z,1.33
2022-11-08T13:46:50.780Z,1.17
2022-11-08T13:47:55.198Z,1.20
2022-11-08T13:49:11.686Z,1.10
2022-11-08T13:50:46.774Z,1.40
2022-11-08T13:51:51.394Z,1.23
2022-11-08T13:53:04.487Z,1.52
2022-11-08T13:54:37.688Z,1.08
2022-11-08T13:55:45.835Z,1.30
2022-11-08T13:56:52.265Z,1.35
2022-11-08T13:57:59.539Z,1.00
2022-11-08T13:59:02.110Z,1.40
2022-11-08T14:00:10.901Z,1.00
2022-11-08T14:01:57.573Z,1.63
2022-11-08T14:03:00.163Z,1.23
2022-11-08T14:04:01.716Z,1.15
2022-11-08T14:05:25.832Z,1.20
2022-11-08T14:06:33.468Z,1.67
2022-11-08T14:07:40.568Z,1.48
2022-11-08T14:08:48.377Z,2.20
2022-11-08T14:09:57.123Z,1.50
2022-11-08T14:11:36.007Z,1.80
2022-11-08T14:12:43.126Z,1.48
2022-11-08T14:14:03.380Z,1.10
2022-11-08T14:15:10.373Z,1.20
2022-11-08T14:16:15.215Z,1.30
2022-11-08T14:17:25.760Z,1.13
2022-11-08T14:18:30.026Z,1.30
2022-11-08T14:19:33.261Z,1.40
2022-11-08T14:20:39.584Z,1.50
2022-11-08T14:21:48.723Z,1.50
2022-11-08T14:22:51.367Z,1.40
2022-11-08T14:23:54.547Z,1.30
2022-11-08T14:25:17.808Z,1.20
2022-11-08T14:26:22.759Z,1.65
2022-11-08T14:27:36.762Z,1.33
2022-11-08T14:28:40.977Z,1.48
2022-11-08T14:29:43.767Z,1.10
2022-11-08T14:30:50.801Z,1.17
2022-11-08T14:32:05.127Z,1.35
2022-11-08T14:33:13.598Z,1.13
2022-11-08T14:34:29.495Z,1.30
2022-11-08T14:35:32.148Z,1.30
2022-11-08T14:36:34.778Z,1.20
2022-11-08T14:37:40.133Z,1.27
2022-11-08T14:38:47.763Z,1.65